Karl Stefan Memorial Airport
KOFK : now visible

Airfield :











YOU CAN JOIN US ON...

 
LOGIN :

Register | Disclaimer

   EN    FR    IT 

 









Legend :    VFR   Marginal VFR   IFR   Intensive IFR   Very Intensive IFR
Visi :
Ceiling :
>= 8 km
>= 3000ft
5 to 8 km
1000 to 3000 ft
1500m to 5 km
500 to 1000 ft
800 to 1500m
200 to 500 ft
< 800m
< 200 ft
Symbols :   Thunderstorms  Fog  Heavy snow  Heavy precipitations  Wind > 20 kt






- Airport Elevation : 1573 ft


KOFK - Karl Stefan Memorial

CURRENT METAR :
  • 171912Z AUTO 07008KT 10SM OVC010 16/13 A3002 RMK AO2 T01610133

EXPIRED METARs :
  • 171856Z AUTO 08008KT 10SM OVC009 16/13 A3002 RMK AO2 SLP162 T01610128
  • 171756Z AUTO 04007KT 3SM BR BKN007 OVC013 16/13 A3003 RMK AO2 RAB00E52 CIG 005V009 SLP166 P0002 60002 T01560133 10156 20139 58001
  • 171742Z AUTO 04005KT 2 1/2SM -RA BR BKN007 OVC011 15/13 A3003 RMK AO2 RAB00 CIG 004V008 P0001 T01500133
  • 171712Z AUTO 07006KT 1 3/4SM -RA BR OVC005 15/13 A3004 RMK AO2 RAB00 P0000 T01500128
  • 171656Z AUTO 06006KT 4SM BR OVC005 15/13 A3004 RMK AO2 SLP169 T01500128

TAF KOFK
Valid from the 17 at 19:00 until the 18 at 18:00 UTC


171905Z 1719/1818 08010KT P6SM OVC012
TEMPO 1719/1721 OVC009
FM172100 08011KT P6SM OVC020
TEMPO 1721/1724 3SM -SHRA BKN012
FM180100 10009KT P6SM OVC008
FM180800 11005KT 5SM BR OVC004
FM181500 11009KT P6SM OVC008
KZMP FIR / North America



MET'MAP, your aeronautical weather chart ! - Copyright ORBIFLY December 2007 - Disclaimer

ORBIFLY MET'MAP TEAM :

Programming & Development : Alexandra Zaïnal
Concept & original design : Baudouin d'Aumeries
Assistance for programming : Marc-Olivier Méhu
Technical & hardware support : Manuel Goepfert

Contact : metmap@orbifly.com




SOURCES & CREDITS :

   NOAA       Earth
Advisory